sensor_id;sensor_type;location;lat;lon;timestamp;P1;durP1;ratioP1;P2;durP2;ratioP2
48777;SDS011;34578;0.000;0.000;2023-01-10T00:02:53;4.82;;;2.08;;
48777;SDS011;34578;0.000;0.000;2023-01-10T00:07:53;4.27;;;1.87;;
48777;SDS011;34578;0.000;0.000;2023-01-10T00:12:54;3.17;;;1.48;;
48777;SDS011;34578;0.000;0.000;2023-01-10T00:18:13;3.33;;;1.80;;
48777;SDS011;34578;0.000;0.000;2023-01-10T00:23:13;2.50;;;1.63;;
48777;SDS011;34578;0.000;0.000;2023-01-10T00:28:15;3.22;;;2.10;;
48777;SDS011;34578;0.000;0.000;2023-01-10T00:33:22;4.47;;;1.65;;
48777;SDS011;34578;0.000;0.000;2023-01-10T00:38:23;3.70;;;2.00;;
48777;SDS011;34578;0.000;0.000;2023-01-10T00:43:23;4.35;;;1.60;;
48777;SDS011;34578;0.000;0.000;2023-01-10T00:48:43;3.45;;;1.95;;
48777;SDS011;34578;0.000;0.000;2023-01-10T00:53:43;4.30;;;1.50;;
48777;SDS011;34578;0.000;0.000;2023-01-10T00:58:43;2.60;;;1.70;;
48777;SDS011;34578;0.000;0.000;2023-01-10T01:03:44;3.47;;;1.77;;
48777;SDS011;34578;0.000;0.000;2023-01-10T01:08:44;2.07;;;1.43;;
48777;SDS011;34578;0.000;0.000;2023-01-10T01:13:44;2.50;;;1.50;;
48777;SDS011;34578;0.000;0.000;2023-01-10T01:18:45;3.50;;;1.40;;
48777;SDS011;34578;0.000;0.000;2023-01-10T01:23:45;3.87;;;1.83;;
48777;SDS011;34578;0.000;0.000;2023-01-10T01:28:48;4.82;;;1.67;;
48777;SDS011;34578;0.000;0.000;2023-01-10T01:33:48;6.28;;;1.73;;
48777;SDS011;34578;0.000;0.000;2023-01-10T01:38:50;3.30;;;1.73;;
48777;SDS011;34578;0.000;0.000;2023-01-10T01:43:58;2.33;;;1.60;;
48777;SDS011;34578;0.000;0.000;2023-01-10T01:48:59;2.88;;;1.40;;
48777;SDS011;34578;0.000;0.000;2023-01-10T01:54:03;2.47;;;1.48;;
48777;SDS011;34578;0.000;0.000;2023-01-10T02:04:11;4.10;;;1.50;;
48777;SDS011;34578;0.000;0.000;2023-01-10T02:09:19;3.60;;;1.65;;
48777;SDS011;34578;0.000;0.000;2023-01-10T02:14:24;2.45;;;1.30;;
48777;SDS011;34578;0.000;0.000;2023-01-10T02:19:28;2.17;;;1.10;;
48777;SDS011;34578;0.000;0.000;2023-01-10T02:24:48;1.60;;;1.17;;
48777;SDS011;34578;0.000;0.000;2023-01-10T03:01:56;2.20;;;1.20;;
48777;SDS011;34578;0.000;0.000;2023-01-10T03:12:09;2.33;;;1.58;;
48777;SDS011;34578;0.000;0.000;2023-01-10T03:17:13;1.85;;;1.10;;
48777;SDS011;34578;0.000;0.000;2023-01-10T03:22:16;5.03;;;1.48;;
48777;SDS011;34578;0.000;0.000;2023-01-10T03:27:26;3.83;;;1.25;;
48777;SDS011;34578;0.000;0.000;2023-01-10T03:32:32;2.83;;;1.05;;
48777;SDS011;34578;0.000;0.000;2023-01-10T03:37:56;2.50;;;1.23;;
48777;SDS011;34578;0.000;0.000;2023-01-10T03:43:00;2.58;;;1.30;;
48777;SDS011;34578;0.000;0.000;2023-01-10T03:48:26;1.23;;;0.98;;
48777;SDS011;34578;0.000;0.000;2023-01-10T03:53:31;1.90;;;1.20;;
48777;SDS011;34578;0.000;0.000;2023-01-10T03:58:33;2.22;;;1.10;;
48777;SDS011;34578;0.000;0.000;2023-01-10T04:03:33;2.45;;;1.30;;
48777;SDS011;34578;0.000;0.000;2023-01-10T04:08:34;2.03;;;1.13;;
48777;SDS011;34578;0.000;0.000;2023-01-10T04:13:34;2.75;;;1.05;;
48777;SDS011;34578;0.000;0.000;2023-01-10T04:18:35;2.08;;;1.15;;
48777;SDS011;34578;0.000;0.000;2023-01-10T04:23:35;1.20;;;1.08;;
48777;SDS011;34578;0.000;0.000;2023-01-10T04:28:36;1.88;;;1.38;;
48777;SDS011;34578;0.000;0.000;2023-01-10T04:33:36;2.60;;;1.33;;
48777;SDS011;34578;0.000;0.000;2023-01-10T04:38:38;3.67;;;1.00;;
48777;SDS011;34578;0.000;0.000;2023-01-10T04:43:38;2.43;;;1.17;;
48777;SDS011;34578;0.000;0.000;2023-01-10T04:48:38;1.47;;;0.80;;
48777;SDS011;34578;0.000;0.000;2023-01-10T04:53:39;1.40;;;1.10;;
48777;SDS011;34578;0.000;0.000;2023-01-10T04:58:40;1.30;;;0.80;;
48777;SDS011;34578;0.000;0.000;2023-01-10T05:03:40;4.63;;;1.00;;
48777;SDS011;34578;0.000;0.000;2023-01-10T05:08:41;1.73;;;1.00;;
48777;SDS011;34578;0.000;0.000;2023-01-10T05:13:41;2.58;;;1.00;;
48777;SDS011;34578;0.000;0.000;2023-01-10T05:18:42;1.27;;;0.95;;
48777;SDS011;34578;0.000;0.000;2023-01-10T05:23:42;1.83;;;1.10;;
48777;SDS011;34578;0.000;0.000;2023-01-10T05:28:43;2.15;;;1.17;;
48777;SDS011;34578;0.000;0.000;2023-01-10T05:33:47;1.60;;;0.95;;
48777;SDS011;34578;0.000;0.000;2023-01-10T05:38:49;1.95;;;0.80;;
48777;SDS011;34578;0.000;0.000;2023-01-10T05:43:49;4.03;;;1.37;;
48777;SDS011;34578;0.000;0.000;2023-01-10T05:48:51;2.13;;;0.93;;
48777;SDS011;34578;0.000;0.000;2023-01-10T05:53:51;2.78;;;1.38;;
48777;SDS011;34578;0.000;0.000;2023-01-10T05:58:52;2.53;;;1.20;;
48777;SDS011;34578;0.000;0.000;2023-01-10T06:03:52;5.40;;;1.47;;
48777;SDS011;34578;0.000;0.000;2023-01-10T06:08:52;18.33;;;1.87;;
48777;SDS011;34578;0.000;0.000;2023-01-10T06:13:58;3.33;;;1.50;;
48777;SDS011;34578;0.000;0.000;2023-01-10T06:18:58;4.85;;;1.48;;
48777;SDS011;34578;0.000;0.000;2023-01-10T06:23:58;4.00;;;1.90;;
48777;SDS011;34578;0.000;0.000;2023-01-10T06:28:59;7.90;;;1.80;;
48777;SDS011;34578;0.000;0.000;2023-01-10T06:33:59;16.23;;;8.97;;
48777;SDS011;34578;0.000;0.000;2023-01-10T06:38:59;17.43;;;9.67;;
48777;SDS011;34578;0.000;0.000;2023-01-10T06:44:00;17.42;;;9.15;;
48777;SDS011;34578;0.000;0.000;2023-01-10T06:49:01;20.20;;;8.03;;
48777;SDS011;34578;0.000;0.000;2023-01-10T06:54:01;15.57;;;7.23;;
48777;SDS011;34578;0.000;0.000;2023-01-10T06:59:02;15.23;;;6.80;;
48777;SDS011;34578;0.000;0.000;2023-01-10T07:04:02;16.60;;;7.20;;
48777;SDS011;34578;0.000;0.000;2023-01-10T07:09:03;17.42;;;6.82;;
48777;SDS011;34578;0.000;0.000;2023-01-10T07:14:04;10.05;;;5.57;;
48777;SDS011;34578;0.000;0.000;2023-01-10T07:19:05;7.70;;;5.20;;
48777;SDS011;34578;0.000;0.000;2023-01-10T07:24:05;12.00;;;5.33;;
48777;SDS011;34578;0.000;0.000;2023-01-10T07:29:09;8.27;;;4.72;;
48777;SDS011;34578;0.000;0.000;2023-01-10T07:34:09;8.40;;;5.00;;
48777;SDS011;34578;0.000;0.000;2023-01-10T07:39:09;7.53;;;3.93;;
48777;SDS011;34578;0.000;0.000;2023-01-10T07:44:10;7.50;;;4.80;;
48777;SDS011;34578;0.000;0.000;2023-01-10T07:49:11;6.68;;;3.67;;
48777;SDS011;34578;0.000;0.000;2023-01-10T07:54:13;9.00;;;4.18;;
48777;SDS011;34578;0.000;0.000;2023-01-10T07:59:13;7.60;;;3.63;;
48777;SDS011;34578;0.000;0.000;2023-01-10T08:04:13;6.50;;;3.70;;
48777;SDS011;34578;0.000;0.000;2023-01-10T08:09:14;6.80;;;3.57;;
48777;SDS011;34578;0.000;0.000;2023-01-10T08:14:14;7.22;;;4.00;;
48777;SDS011;34578;0.000;0.000;2023-01-10T08:19:14;4.83;;;3.47;;
48777;SDS011;34578;0.000;0.000;2023-01-10T08:24:16;6.28;;;3.53;;
48777;SDS011;34578;0.000;0.000;2023-01-10T08:29:17;6.03;;;3.27;;
48777;SDS011;34578;0.000;0.000;2023-01-10T08:34:17;6.37;;;3.83;;
48777;SDS011;34578;0.000;0.000;2023-01-10T08:39:18;4.50;;;3.30;;
48777;SDS011;34578;0.000;0.000;2023-01-10T08:44:21;7.97;;;3.42;;
48777;SDS011;34578;0.000;0.000;2023-01-10T08:49:22;5.95;;;3.70;;
48777;SDS011;34578;0.000;0.000;2023-01-10T08:54:22;6.38;;;3.95;;
48777;SDS011;34578;0.000;0.000;2023-01-10T08:59:23;6.25;;;3.30;;
48777;SDS011;34578;0.000;0.000;2023-01-10T09:04:23;6.20;;;3.50;;
48777;SDS011;34578;0.000;0.000;2023-01-10T09:09:25;6.47;;;3.22;;
48777;SDS011;34578;0.000;0.000;2023-01-10T09:14:25;4.27;;;2.83;;
48777;SDS011;34578;0.000;0.000;2023-01-10T09:19:25;5.90;;;3.13;;
48777;SDS011;34578;0.000;0.000;2023-01-10T09:24:26;4.00;;;2.83;;
48777;SDS011;34578;0.000;0.000;2023-01-10T09:29:26;3.73;;;2.73;;
48777;SDS011;34578;0.000;0.000;2023-01-10T09:34:26;3.77;;;2.70;;
48777;SDS011;34578;0.000;0.000;2023-01-10T09:39:27;5.70;;;2.83;;
48777;SDS011;34578;0.000;0.000;2023-01-10T09:50:17;5.30;;;3.13;;
48777;SDS011;34578;0.000;0.000;2023-01-10T09:55:27;5.25;;;2.78;;
48777;SDS011;34578;0.000;0.000;2023-01-10T10:00:34;4.47;;;2.60;;
48777;SDS011;34578;0.000;0.000;2023-01-10T10:05:38;4.40;;;3.20;;
48777;SDS011;34578;0.000;0.000;2023-01-10T10:10:40;4.33;;;2.90;;
48777;SDS011;34578;0.000;0.000;2023-01-10T10:16:03;6.82;;;3.28;;
48777;SDS011;34578;0.000;0.000;2023-01-10T10:26:38;5.00;;;2.40;;
48777;SDS011;34578;0.000;0.000;2023-01-10T10:32:12;4.25;;;2.58;;
48777;SDS011;34578;0.000;0.000;2023-01-10T10:37:47;3.55;;;2.47;;
48777;SDS011;34578;0.000;0.000;2023-01-10T10:42:51;3.67;;;2.60;;
48777;SDS011;34578;0.000;0.000;2023-01-10T10:47:55;3.53;;;2.83;;
48777;SDS011;34578;0.000;0.000;2023-01-10T10:53:03;4.60;;;2.50;;
48777;SDS011;34578;0.000;0.000;2023-01-10T10:58:04;3.25;;;2.20;;
48777;SDS011;34578;0.000;0.000;2023-01-10T11:08:24;3.95;;;2.42;;
48777;SDS011;34578;0.000;0.000;2023-01-10T11:13:33;4.22;;;2.13;;
48777;SDS011;34578;0.000;0.000;2023-01-10T11:23:48;2.67;;;2.00;;
48777;SDS011;34578;0.000;0.000;2023-01-10T11:28:51;4.00;;;2.20;;
48777;SDS011;34578;0.000;0.000;2023-01-10T11:34:04;2.78;;;2.20;;
48777;SDS011;34578;0.000;0.000;2023-01-10T11:39:15;3.03;;;2.13;;
48777;SDS011;34578;0.000;0.000;2023-01-10T11:44:23;4.72;;;1.92;;
48777;SDS011;34578;0.000;0.000;2023-01-10T11:54:38;3.58;;;2.10;;
48777;SDS011;34578;0.000;0.000;2023-01-10T12:00:03;6.05;;;2.30;;
48777;SDS011;34578;0.000;0.000;2023-01-10T12:05:17;3.53;;;2.30;;
48777;SDS011;34578;0.000;0.000;2023-01-10T12:10:21;4.85;;;2.22;;
48777;SDS011;34578;0.000;0.000;2023-01-10T12:15:25;3.97;;;2.65;;
48777;SDS011;34578;0.000;0.000;2023-01-10T12:20:28;9.38;;;2.35;;
48777;SDS011;34578;0.000;0.000;2023-01-10T12:25:33;4.65;;;2.08;;
48777;SDS011;34578;0.000;0.000;2023-01-10T12:30:39;10.82;;;4.38;;
48777;SDS011;34578;0.000;0.000;2023-01-10T12:35:49;22.63;;;12.50;;
48777;SDS011;34578;0.000;0.000;2023-01-10T12:40:56;26.45;;;14.27;;
48777;SDS011;34578;0.000;0.000;2023-01-10T12:46:07;29.65;;;17.33;;
48777;SDS011;34578;0.000;0.000;2023-01-10T12:51:14;26.35;;;17.38;;
48777;SDS011;34578;0.000;0.000;2023-01-10T12:56:19;21.17;;;12.25;;
48777;SDS011;34578;0.000;0.000;2023-01-10T13:01:24;24.17;;;17.23;;
48777;SDS011;34578;0.000;0.000;2023-01-10T13:06:29;23.20;;;13.52;;
48777;SDS011;34578;0.000;0.000;2023-01-10T13:11:33;55.30;;;33.90;;
48777;SDS011;34578;0.000;0.000;2023-01-10T13:16:43;46.38;;;28.88;;
48777;SDS011;34578;0.000;0.000;2023-01-10T13:21:47;48.33;;;27.27;;
48777;SDS011;34578;0.000;0.000;2023-01-10T13:26:55;28.05;;;17.60;;
48777;SDS011;34578;0.000;0.000;2023-01-10T13:31:57;29.88;;;19.25;;
48777;SDS011;34578;0.000;0.000;2023-01-10T13:37:09;31.95;;;18.85;;
48777;SDS011;34578;0.000;0.000;2023-01-10T13:42:22;51.03;;;30.33;;
48777;SDS011;34578;0.000;0.000;2023-01-10T13:58:02;69.85;;;42.88;;
48777;SDS011;34578;0.000;0.000;2023-01-10T14:08:51;67.10;;;43.65;;
48777;SDS011;34578;0.000;0.000;2023-01-10T14:13:54;60.15;;;39.53;;
48777;SDS011;34578;0.000;0.000;2023-01-10T14:18:57;63.80;;;38.80;;
48777;SDS011;34578;0.000;0.000;2023-01-10T14:23:58;68.95;;;44.10;;
48777;SDS011;34578;0.000;0.000;2023-01-10T14:28:59;65.47;;;41.10;;
48777;SDS011;34578;0.000;0.000;2023-01-10T14:34:07;60.78;;;37.17;;
48777;SDS011;34578;0.000;0.000;2023-01-10T14:39:10;69.00;;;42.47;;
48777;SDS011;34578;0.000;0.000;2023-01-10T14:44:18;71.15;;;44.70;;
48777;SDS011;34578;0.000;0.000;2023-01-10T14:49:29;79.88;;;46.83;;
48777;SDS011;34578;0.000;0.000;2023-01-10T14:54:34;73.97;;;47.85;;
48777;SDS011;34578;0.000;0.000;2023-01-10T14:59:34;67.70;;;42.10;;
48777;SDS011;34578;0.000;0.000;2023-01-10T15:04:35;69.07;;;42.80;;
48777;SDS011;34578;0.000;0.000;2023-01-10T15:09:37;74.53;;;46.45;;
48777;SDS011;34578;0.000;0.000;2023-01-10T15:14:38;73.85;;;46.45;;
48777;SDS011;34578;0.000;0.000;2023-01-10T15:19:38;75.85;;;47.85;;
48777;SDS011;34578;0.000;0.000;2023-01-10T15:24:39;69.53;;;45.00;;
48777;SDS011;34578;0.000;0.000;2023-01-10T15:29:42;73.18;;;44.92;;
48777;SDS011;34578;0.000;0.000;2023-01-10T15:34:47;68.55;;;42.92;;
48777;SDS011;34578;0.000;0.000;2023-01-10T15:39:49;67.50;;;41.22;;
48777;SDS011;34578;0.000;0.000;2023-01-10T15:44:52;62.55;;;39.47;;
48777;SDS011;34578;0.000;0.000;2023-01-10T15:49:53;53.88;;;33.80;;
48777;SDS011;34578;0.000;0.000;2023-01-10T15:54:53;67.22;;;37.70;;
48777;SDS011;34578;0.000;0.000;2023-01-10T15:59:56;60.42;;;37.00;;
48777;SDS011;34578;0.000;0.000;2023-01-10T16:04:58;62.58;;;36.42;;
48777;SDS011;34578;0.000;0.000;2023-01-10T16:10:07;44.78;;;28.75;;
48777;SDS011;34578;0.000;0.000;2023-01-10T16:15:15;59.08;;;36.95;;
48777;SDS011;34578;0.000;0.000;2023-01-10T16:20:31;52.75;;;33.42;;
48777;SDS011;34578;0.000;0.000;2023-01-10T16:25:36;57.10;;;31.25;;
48777;SDS011;34578;0.000;0.000;2023-01-10T16:30:38;50.20;;;31.35;;
48777;SDS011;34578;0.000;0.000;2023-01-10T16:35:48;49.15;;;30.90;;
48777;SDS011;34578;0.000;0.000;2023-01-10T16:40:51;50.35;;;31.50;;
48777;SDS011;34578;0.000;0.000;2023-01-10T16:45:59;46.50;;;27.98;;
48777;SDS011;34578;0.000;0.000;2023-01-10T16:51:03;44.60;;;29.60;;
48777;SDS011;34578;0.000;0.000;2023-01-10T16:56:05;42.17;;;26.20;;
48777;SDS011;34578;0.000;0.000;2023-01-10T17:01:08;40.65;;;26.17;;
48777;SDS011;34578;0.000;0.000;2023-01-10T17:06:13;40.97;;;24.45;;
48777;SDS011;34578;0.000;0.000;2023-01-10T17:11:21;40.33;;;24.65;;
48777;SDS011;34578;0.000;0.000;2023-01-10T17:16:24;41.60;;;23.83;;
48777;SDS011;34578;0.000;0.000;2023-01-10T17:21:24;36.70;;;23.85;;
48777;SDS011;34578;0.000;0.000;2023-01-10T17:26:25;39.42;;;23.63;;
48777;SDS011;34578;0.000;0.000;2023-01-10T17:31:26;35.28;;;23.15;;
48777;SDS011;34578;0.000;0.000;2023-01-10T17:36:26;38.20;;;23.13;;
48777;SDS011;34578;0.000;0.000;2023-01-10T17:41:31;34.47;;;23.02;;
48777;SDS011;34578;0.000;0.000;2023-01-10T17:46:32;34.88;;;21.23;;
48777;SDS011;34578;0.000;0.000;2023-01-10T17:51:32;33.80;;;20.73;;
48777;SDS011;34578;0.000;0.000;2023-01-10T17:56:33;30.90;;;19.47;;
48777;SDS011;34578;0.000;0.000;2023-01-10T18:01:33;34.43;;;20.80;;
48777;SDS011;34578;0.000;0.000;2023-01-10T18:06:34;30.00;;;18.73;;
48777;SDS011;34578;0.000;0.000;2023-01-10T18:11:34;28.23;;;17.43;;
48777;SDS011;34578;0.000;0.000;2023-01-10T18:16:34;31.37;;;19.57;;
48777;SDS011;34578;0.000;0.000;2023-01-10T18:21:35;32.37;;;19.40;;
48777;SDS011;34578;0.000;0.000;2023-01-10T18:26:35;29.83;;;18.67;;
48777;SDS011;34578;0.000;0.000;2023-01-10T18:31:35;30.43;;;18.07;;
48777;SDS011;34578;0.000;0.000;2023-01-10T18:36:36;26.30;;;17.13;;
48777;SDS011;34578;0.000;0.000;2023-01-10T18:41:38;26.33;;;16.88;;
48777;SDS011;34578;0.000;0.000;2023-01-10T18:46:39;25.83;;;15.97;;
48777;SDS011;34578;0.000;0.000;2023-01-10T18:51:39;26.33;;;16.37;;
48777;SDS011;34578;0.000;0.000;2023-01-10T18:56:40;41.67;;;15.57;;
48777;SDS011;34578;0.000;0.000;2023-01-10T19:01:40;33.23;;;15.80;;
48777;SDS011;34578;0.000;0.000;2023-01-10T19:06:41;26.13;;;15.55;;
48777;SDS011;34578;0.000;0.000;2023-01-10T19:11:43;30.50;;;14.35;;
48777;SDS011;34578;0.000;0.000;2023-01-10T19:16:43;24.60;;;14.10;;
48777;SDS011;34578;0.000;0.000;2023-01-10T19:21:43;30.50;;;14.23;;
48777;SDS011;34578;0.000;0.000;2023-01-10T19:26:44;22.20;;;13.05;;
48777;SDS011;34578;0.000;0.000;2023-01-10T19:31:44;23.47;;;12.87;;
48777;SDS011;34578;0.000;0.000;2023-01-10T19:36:47;24.42;;;12.50;;
48777;SDS011;34578;0.000;0.000;2023-01-10T19:41:47;24.13;;;12.07;;
48777;SDS011;34578;0.000;0.000;2023-01-10T19:46:47;19.57;;;11.47;;
48777;SDS011;34578;0.000;0.000;2023-01-10T19:51:49;21.63;;;11.85;;
48777;SDS011;34578;0.000;0.000;2023-01-10T19:56:52;20.38;;;11.80;;
48777;SDS011;34578;0.000;0.000;2023-01-10T20:01:52;18.77;;;10.97;;
48777;SDS011;34578;0.000;0.000;2023-01-10T20:06:53;17.03;;;11.33;;
48777;SDS011;34578;0.000;0.000;2023-01-10T20:11:53;15.57;;;10.20;;
48777;SDS011;34578;0.000;0.000;2023-01-10T20:16:54;17.92;;;10.73;;
48777;SDS011;34578;0.000;0.000;2023-01-10T20:21:54;16.93;;;9.50;;
48777;SDS011;34578;0.000;0.000;2023-01-10T20:26:55;18.17;;;11.03;;
48777;SDS011;34578;0.000;0.000;2023-01-10T20:31:58;17.70;;;9.43;;
48777;SDS011;34578;0.000;0.000;2023-01-10T20:37:00;19.30;;;10.63;;
48777;SDS011;34578;0.000;0.000;2023-01-10T20:42:00;16.03;;;9.67;;
48777;SDS011;34578;0.000;0.000;2023-01-10T20:47:00;14.40;;;8.87;;
48777;SDS011;34578;0.000;0.000;2023-01-10T20:52:01;13.75;;;9.18;;
48777;SDS011;34578;0.000;0.000;2023-01-10T20:57:01;17.77;;;9.23;;
48777;SDS011;34578;0.000;0.000;2023-01-10T21:02:02;18.08;;;9.70;;
48777;SDS011;34578;0.000;0.000;2023-01-10T21:07:02;16.10;;;10.47;;
48777;SDS011;34578;0.000;0.000;2023-01-10T21:12:04;16.02;;;9.00;;
48777;SDS011;34578;0.000;0.000;2023-01-10T21:17:05;16.42;;;8.68;;
48777;SDS011;34578;0.000;0.000;2023-01-10T21:22:05;14.53;;;8.77;;
48777;SDS011;34578;0.000;0.000;2023-01-10T21:27:06;13.73;;;8.85;;
48777;SDS011;34578;0.000;0.000;2023-01-10T21:32:06;16.43;;;9.23;;
48777;SDS011;34578;0.000;0.000;2023-01-10T21:37:08;14.02;;;8.00;;
48777;SDS011;34578;0.000;0.000;2023-01-10T21:42:09;16.23;;;7.93;;
48777;SDS011;34578;0.000;0.000;2023-01-10T21:47:29;14.65;;;7.85;;
48777;SDS011;34578;0.000;0.000;2023-01-10T21:52:29;14.10;;;8.93;;
48777;SDS011;34578;0.000;0.000;2023-01-10T21:57:29;11.02;;;7.32;;
48777;SDS011;34578;0.000;0.000;2023-01-10T22:02:30;13.30;;;7.33;;
48777;SDS011;34578;0.000;0.000;2023-01-10T22:07:30;11.83;;;7.87;;
48777;SDS011;34578;0.000;0.000;2023-01-10T22:12:31;12.33;;;7.43;;
48777;SDS011;34578;0.000;0.000;2023-01-10T22:17:31;10.50;;;7.10;;
48777;SDS011;34578;0.000;0.000;2023-01-10T22:22:31;11.47;;;7.80;;
48777;SDS011;34578;0.000;0.000;2023-01-10T22:27:32;12.90;;;7.40;;
48777;SDS011;34578;0.000;0.000;2023-01-10T22:32:32;13.27;;;7.60;;
48777;SDS011;34578;0.000;0.000;2023-01-10T22:37:33;10.93;;;7.07;;
48777;SDS011;34578;0.000;0.000;2023-01-10T22:42:34;10.10;;;6.35;;
48777;SDS011;34578;0.000;0.000;2023-01-10T22:47:34;11.00;;;6.70;;
48777;SDS011;34578;0.000;0.000;2023-01-10T22:52:35;12.20;;;7.73;;
48777;SDS011;34578;0.000;0.000;2023-01-10T22:57:35;11.73;;;6.87;;
48777;SDS011;34578;0.000;0.000;2023-01-10T23:02:35;11.37;;;7.00;;
48777;SDS011;34578;0.000;0.000;2023-01-10T23:07:36;8.77;;;6.33;;
48777;SDS011;34578;0.000;0.000;2023-01-10T23:12:36;8.67;;;6.37;;
48777;SDS011;34578;0.000;0.000;2023-01-10T23:17:36;7.37;;;5.87;;
48777;SDS011;34578;0.000;0.000;2023-01-10T23:22:37;11.73;;;6.33;;
48777;SDS011;34578;0.000;0.000;2023-01-10T23:27:37;9.73;;;6.53;;
48777;SDS011;34578;0.000;0.000;2023-01-10T23:32:37;9.07;;;6.20;;
48777;SDS011;34578;0.000;0.000;2023-01-10T23:37:38;8.17;;;5.60;;
48777;SDS011;34578;0.000;0.000;2023-01-10T23:42:38;8.67;;;5.73;;
48777;SDS011;34578;0.000;0.000;2023-01-10T23:47:38;10.27;;;5.60;;
48777;SDS011;34578;0.000;0.000;2023-01-10T23:52:39;8.93;;;5.57;;
48777;SDS011;34578;0.000;0.000;2023-01-10T23:57:39;8.60;;;5.77;;
